createdAt,value
2023-05-14T00:01:53.398Z,102095.16
2023-05-14T00:04:42.059Z,102087.91
2023-05-14T00:07:09.838Z,102081.34
2023-05-14T00:09:37.911Z,102075.33
2023-05-14T00:12:06.352Z,102075.56
2023-05-14T00:14:34.363Z,102073.63
2023-05-14T00:17:17.817Z,102072.84
2023-05-14T00:19:59.815Z,102071.70
2023-05-14T00:22:27.829Z,102074.63
2023-05-14T00:24:55.506Z,102073.98
2023-05-14T00:27:23.502Z,102071.83
2023-05-14T00:29:51.194Z,102071.89
2023-05-14T00:36:05.569Z,102066.56
2023-05-14T00:38:33.320Z,102067.85
2023-05-14T00:41:01.091Z,102064.61
2023-05-14T00:43:28.902Z,102059.54
2023-05-14T00:45:56.669Z,102054.94
2023-05-14T00:48:24.749Z,102052.33
2023-05-14T00:50:52.836Z,102053.13
2023-05-14T00:53:21.523Z,102051.14
2023-05-14T00:55:49.970Z,102055.33
2023-05-14T00:58:18.485Z,102050.77
2023-05-14T01:00:46.378Z,102047.36
2023-05-14T01:03:14.351Z,102041.92
2023-05-14T01:05:45.387Z,102036.25
2023-05-14T01:08:25.009Z,102034.89
2023-05-14T01:11:04.076Z,102030.73
2023-05-14T01:13:31.776Z,102023.52
2023-05-14T01:16:00.394Z,102021.52
2023-05-14T01:25:31.033Z,102014.73
2023-05-14T01:28:20.361Z,102015.42
2023-05-14T01:30:48.405Z,102011.61
2023-05-14T01:33:18.373Z,102011.81
2023-05-14T01:35:46.524Z,102008.83
2023-05-14T01:38:16.390Z,102005.04
2023-05-14T01:40:45.556Z,102002.23
2023-05-14T01:43:13.964Z,101999.87
2023-05-14T01:45:41.766Z,101999.30
2023-05-14T01:48:09.805Z,102000.87
2023-05-14T01:50:40.949Z,102000.16
2023-05-14T01:53:32.971Z,101995.01
2023-05-14T01:56:01.875Z,101992.70
2023-05-14T01:58:41.294Z,101995.04
2023-05-14T02:01:09.352Z,101995.80
2023-05-14T02:03:37.143Z,101996.11
2023-05-14T02:06:05.171Z,101992.71
2023-05-14T02:08:32.943Z,101992.16
2023-05-14T02:11:00.918Z,101993.59
2023-05-14T02:13:28.653Z,101985.46
2023-05-14T02:15:56.574Z,101985.95
2023-05-14T02:18:24.557Z,101980.23
2023-05-14T02:20:52.694Z,101979.71
2023-05-14T02:23:31.027Z,101980.19
2023-05-14T02:26:05.981Z,101979.72
2023-05-14T02:28:33.998Z,101977.54
2023-05-14T02:31:01.859Z,101976.06
2023-05-14T02:33:29.945Z,101975.35
2023-05-14T02:35:57.826Z,101973.53
2023-05-14T02:38:26.367Z,101974.11
2023-05-14T02:40:54.154Z,101968.08
2023-05-14T02:43:22.070Z,101968.83
2023-05-14T02:45:49.831Z,101968.43
2023-05-14T02:48:17.687Z,101965.15
2023-05-14T02:50:45.486Z,101965.56
2023-05-14T02:53:13.472Z,101971.63
2023-05-14T02:55:41.456Z,101972.98
2023-05-14T02:58:09.530Z,101965.93
2023-05-14T03:00:37.672Z,101962.98
2023-05-14T03:03:06.211Z,101957.46
2023-05-14T03:05:34.678Z,101957.80
2023-05-14T03:08:02.586Z,101957.87
2023-05-14T03:10:30.424Z,101953.83
2023-05-14T03:12:58.587Z,101955.48
2023-05-14T03:15:26.468Z,101957.38
2023-05-14T03:17:54.341Z,101951.79
2023-05-14T03:20:24.089Z,101953.20
2023-05-14T03:22:52.267Z,101949.73
2023-05-14T03:25:23.179Z,101951.70
2023-05-14T03:27:50.924Z,101951.71
2023-05-14T03:30:18.827Z,101949.75
2023-05-14T03:32:46.710Z,101953.42
2023-05-14T03:35:14.706Z,101949.57
2023-05-14T03:37:42.453Z,101946.42
2023-05-14T03:40:10.811Z,101947.92
2023-05-14T03:42:38.695Z,101947.13
2023-05-14T03:45:07.096Z,101944.67
2023-05-14T03:47:46.929Z,101945.37
2023-05-14T03:50:19.043Z,101938.59
2023-05-14T03:52:47.122Z,101939.77
2023-05-14T03:55:14.864Z,101938.06
2023-05-14T03:57:42.683Z,101932.17
2023-05-14T04:00:10.822Z,101930.45
2023-05-14T04:02:38.825Z,101927.40
2023-05-14T04:05:06.863Z,101927.59
2023-05-14T04:07:46.863Z,101930.70
2023-05-14T04:10:29.485Z,101933.70
2023-05-14T04:12:57.703Z,101933.89
2023-05-14T04:15:25.639Z,101933.43
2023-05-14T04:17:53.509Z,101931.41
2023-05-14T04:20:21.360Z,101932.43
2023-05-14T04:22:52.550Z,101932.27
2023-05-14T04:25:23.029Z,101933.80
2023-05-14T04:27:51.133Z,101932.78
2023-05-14T04:30:19.021Z,101933.48
2023-05-14T04:33:07.899Z,101930.27
2023-05-14T04:35:36.345Z,101930.23
2023-05-14T04:38:04.386Z,101932.23
2023-05-14T04:40:32.297Z,101931.91
2023-05-14T04:43:00.063Z,101933.33
2023-05-14T04:45:28.061Z,101930.02
2023-05-14T04:47:57.237Z,101928.27
2023-05-14T04:50:26.123Z,101928.71
2023-05-14T04:52:56.087Z,101921.33
2023-05-14T04:55:24.275Z,101917.83
2023-05-14T04:58:05.443Z,101914.23
2023-05-14T05:00:33.697Z,101913.02
2023-05-14T05:03:02.474Z,101911.48
2023-05-14T05:05:33.491Z,101909.64
2023-05-14T05:08:01.703Z,101905.69
2023-05-14T05:10:42.944Z,101903.48
2023-05-14T05:13:14.758Z,101901.75
2023-05-14T05:15:56.331Z,101900.39
2023-05-14T05:18:24.731Z,101896.86
2023-05-14T05:20:52.557Z,101894.59
2023-05-14T05:23:20.494Z,101891.14
2023-05-14T05:25:48.212Z,101887.30
2023-05-14T05:28:16.210Z,101887.90
2023-05-14T05:30:47.910Z,101887.05
2023-05-14T05:33:19.997Z,101886.80
2023-05-14T05:35:52.563Z,101882.92
2023-05-14T05:38:20.498Z,101878.70
2023-05-14T05:40:48.447Z,101874.36
2023-05-14T05:43:16.806Z,101871.69
2023-05-14T05:45:46.135Z,101865.66
2023-05-14T05:48:14.069Z,101866.85
2023-05-14T05:50:44.337Z,101862.94
2023-05-14T05:53:17.897Z,101862.27
2023-05-14T05:55:45.897Z,101864.95
2023-05-14T05:58:17.398Z,101866.69
2023-05-14T06:00:45.695Z,101860.77
2023-05-14T06:03:23.576Z,101862.40
2023-05-14T06:05:52.804Z,101853.91
2023-05-14T06:08:21.122Z,101851.32
2023-05-14T06:10:49.367Z,101848.29
2023-05-14T06:13:17.845Z,101844.60
2023-05-14T06:15:45.833Z,101845.66
2023-05-14T06:18:13.874Z,101851.35
2023-05-14T06:20:41.639Z,101853.30
2023-05-14T06:23:12.477Z,101859.61
2023-05-14T06:25:42.635Z,101864.79
2023-05-14T06:28:21.836Z,101861.81
2023-05-14T06:30:50.418Z,101864.17
2023-05-14T06:33:20.009Z,101854.80
2023-05-14T06:35:48.592Z,101859.56
2023-05-14T06:38:18.947Z,101853.96
2023-05-14T06:40:47.047Z,101849.84
2023-05-14T06:43:15.533Z,101848.05
2023-05-14T06:45:43.307Z,101847.42
2023-05-14T06:48:11.348Z,101849.95
2023-05-14T06:50:39.201Z,101853.02
2023-05-14T06:53:12.939Z,101846.94
2023-05-14T06:55:41.070Z,101845.75
2023-05-14T06:58:16.724Z,101842.41
2023-05-14T07:00:44.666Z,101842.19
2023-05-14T07:03:12.743Z,101841.58
2023-05-14T07:05:41.355Z,101839.90
2023-05-14T07:12:02.455Z,101840.71
2023-05-14T07:15:00.028Z,101841.25
2023-05-14T07:17:29.801Z,101841.49
2023-05-14T07:19:59.226Z,101842.15
2023-05-14T07:22:27.199Z,101841.25
2023-05-14T07:24:54.978Z,101836.42
2023-05-14T07:27:23.163Z,101839.66
2023-05-14T07:29:50.977Z,101841.25
2023-05-14T07:32:19.000Z,101839.62
2023-05-14T07:34:46.921Z,101842.70
2023-05-14T07:37:14.732Z,101844.55
2023-05-14T07:39:42.772Z,101848.48
2023-05-14T07:42:21.897Z,101848.60
2023-05-14T07:44:56.684Z,101841.66
2023-05-14T07:47:37.438Z,101843.40
2023-05-14T07:50:08.438Z,101842.27
2023-05-14T07:52:36.244Z,101835.75
2023-05-14T07:55:04.434Z,101832.98
2023-05-14T07:57:38.104Z,101833.23
2023-05-14T08:00:09.871Z,101826.75
2023-05-14T08:02:38.258Z,101824.90
2023-05-14T08:05:07.032Z,101819.16
2023-05-14T08:07:52.326Z,101820.20
2023-05-14T08:10:47.327Z,101820.21
2023-05-14T08:13:16.193Z,101820.89
2023-05-14T08:15:45.046Z,101821.14
2023-05-14T08:18:18.147Z,101815.99
2023-05-14T08:20:46.393Z,101819.95
2023-05-14T08:23:14.599Z,101825.34
2023-05-14T08:25:42.783Z,101829.33
2023-05-14T08:28:10.870Z,101824.55
2023-05-14T08:30:52.160Z,101823.80
2023-05-14T08:33:23.908Z,101818.25
2023-05-14T08:35:56.900Z,101819.52
2023-05-14T08:38:35.318Z,101817.84
2023-05-14T08:41:14.156Z,101814.27
2023-05-14T08:44:05.632Z,101810.39
2023-05-14T08:46:34.020Z,101808.81
2023-05-14T08:49:53.391Z,101808.80
2023-05-14T08:52:22.530Z,101812.82
2023-05-14T08:54:51.369Z,101808.49
2023-05-14T08:57:28.761Z,101806.23
2023-05-14T08:59:57.258Z,101804.80
2023-05-14T09:02:30.555Z,101804.80
2023-05-14T09:05:01.259Z,101802.69
2023-05-14T09:07:36.424Z,101799.20
2023-05-14T09:10:13.241Z,101796.55
2023-05-14T09:12:41.266Z,101789.73
2023-05-14T09:15:09.447Z,101790.06
2023-05-14T09:17:37.565Z,101788.25
2023-05-14T09:20:06.856Z,101782.24
2023-05-14T09:22:35.055Z,101775.55
2023-05-14T09:25:17.618Z,101774.98
2023-05-14T09:27:50.208Z,101771.63
2023-05-14T09:30:18.246Z,101764.51
2023-05-14T09:32:46.237Z,101761.48
2023-05-14T09:35:17.609Z,101761.20
2023-05-14T09:37:49.953Z,101758.21
2023-05-14T09:40:24.662Z,101763.01
2023-05-14T09:43:08.309Z,101761.36
2023-05-14T09:45:36.856Z,101759.71
2023-05-14T09:48:07.621Z,101762.34
2023-05-14T09:50:56.318Z,101764.64
2023-05-14T09:53:24.457Z,101763.64
2023-05-14T09:55:52.638Z,101763.98
2023-05-14T09:58:20.553Z,101760.64
2023-05-14T10:00:49.237Z,101755.83
2023-05-14T10:03:20.603Z,101750.59
2023-05-14T10:13:39.291Z,101762.54
2023-05-14T10:16:07.311Z,101761.70
2023-05-14T10:18:41.235Z,101760.91
2023-05-14T10:21:27.598Z,101755.82
2023-05-14T10:23:55.880Z,101749.06
2023-05-14T10:26:24.399Z,101745.57
2023-05-14T10:28:56.006Z,101740.35
2023-05-14T10:31:24.878Z,101736.90
2023-05-14T10:33:54.804Z,101735.95
2023-05-14T10:36:36.983Z,101730.23
2023-05-14T10:39:08.126Z,101726.45
2023-05-14T10:41:42.110Z,101722.48
2023-05-14T10:44:11.331Z,101721.05
2023-05-14T10:46:53.190Z,101719.31
2023-05-14T10:49:39.746Z,101716.39
2023-05-14T10:52:14.629Z,101713.77
2023-05-14T10:54:53.952Z,101710.27
2023-05-14T10:57:26.708Z,101706.51
2023-05-14T10:59:55.761Z,101702.74
2023-05-14T11:02:23.580Z,101699.52
2023-05-14T11:05:03.843Z,101694.76
2023-05-14T11:07:41.729Z,101694.75
2023-05-14T11:10:10.832Z,101692.41
2023-05-14T11:12:42.063Z,101686.05
2023-05-14T11:15:31.282Z,101680.23
2023-05-14T11:17:59.064Z,101677.84
2023-05-14T11:20:27.115Z,101671.23
2023-05-14T11:22:55.473Z,101670.02
2023-05-14T11:25:25.753Z,101668.88
2023-05-14T11:27:58.333Z,101671.46
2023-05-14T11:30:26.380Z,101669.05
2023-05-14T11:32:55.903Z,101669.13
2023-05-14T11:35:23.816Z,101670.02
2023-05-14T11:37:55.199Z,101669.84
2023-05-14T11:40:23.523Z,101667.94
2023-05-14T11:42:53.692Z,101664.95
2023-05-14T11:45:26.461Z,101666.39
2023-05-14T11:47:54.980Z,101660.96
2023-05-14T11:50:23.362Z,101657.23
2023-05-14T11:52:56.068Z,101655.30
2023-05-14T11:55:26.987Z,101655.77
2023-05-14T11:57:58.084Z,101654.98
2023-05-14T12:00:26.903Z,101658.36
2023-05-14T12:02:55.372Z,101653.51
2023-05-14T12:05:25.915Z,101649.13
2023-05-14T12:07:54.319Z,101648.05
2023-05-14T12:10:26.975Z,101640.64
2023-05-14T12:12:58.084Z,101636.98
2023-05-14T12:15:27.244Z,101636.73
2023-05-14T12:17:55.018Z,101629.70
2023-05-14T12:20:23.988Z,101630.39
2023-05-14T12:22:52.093Z,101624.46
2023-05-14T12:25:20.244Z,101620.87
2023-05-14T12:27:48.334Z,101619.31
2023-05-14T12:30:21.893Z,101612.77
2023-05-14T12:32:52.711Z,101611.58
2023-05-14T12:35:21.733Z,101605.92
2023-05-14T12:37:49.659Z,101598.31
2023-05-14T12:40:17.909Z,101597.90
2023-05-14T12:42:45.775Z,101591.83
2023-05-14T12:45:13.635Z,101592.66
2023-05-14T12:47:41.552Z,101586.65
2023-05-14T12:50:09.717Z,101584.66
2023-05-14T12:52:39.698Z,101575.07
2023-05-14T12:55:09.137Z,101569.80
2023-05-14T12:57:39.454Z,101568.84
2023-05-14T13:00:08.617Z,101567.56
2023-05-14T13:02:42.761Z,101561.84
2023-05-14T13:05:12.054Z,101556.52
2023-05-14T13:11:16.535Z,101550.27
2023-05-14T13:13:44.222Z,101545.33
2023-05-14T13:16:16.886Z,101546.58
2023-05-14T13:18:48.419Z,101547.01
2023-05-14T13:21:16.897Z,101542.70
2023-05-14T13:23:45.079Z,101542.90
2023-05-14T13:26:14.581Z,101541.48
2023-05-14T13:28:46.083Z,101536.35
2023-05-14T13:31:16.663Z,101535.20
2023-05-14T13:33:45.284Z,101537.02
2023-05-14T13:36:13.935Z,101528.95
2023-05-14T13:38:51.778Z,101529.21
2023-05-14T13:41:19.832Z,101525.45
2023-05-14T13:43:47.916Z,101523.05
2023-05-14T13:46:15.972Z,101516.76
2023-05-14T13:48:43.748Z,101511.07
2023-05-14T13:54:59.350Z,101505.46
2023-05-14T14:04:39.214Z,101494.36
2023-05-14T14:07:07.013Z,101494.81
2023-05-14T14:09:36.924Z,101489.91
2023-05-14T14:16:34.352Z,101489.61
2023-05-14T14:26:47.510Z,101475.98
2023-05-14T14:32:57.876Z,101472.07
2023-05-14T14:35:25.784Z,101470.32
2023-05-14T14:37:53.989Z,101463.46
2023-05-14T14:40:23.664Z,101463.13
2023-05-14T14:43:12.654Z,101458.90
2023-05-14T14:46:12.285Z,101455.30
2023-05-14T14:48:50.075Z,101450.80
2023-05-14T14:51:20.241Z,101450.66
2023-05-14T14:54:02.813Z,101447.17
2023-05-14T14:56:31.446Z,101451.05
2023-05-14T14:58:59.826Z,101451.13
2023-05-14T15:01:28.022Z,101446.37
2023-05-14T15:03:55.838Z,101449.63
2023-05-14T15:09:27.518Z,101437.69
2023-05-14T15:12:18.601Z,101433.29
2023-05-14T15:14:46.746Z,101430.30
2023-05-14T15:17:22.252Z,101426.95
2023-05-14T15:19:52.774Z,101422.34
2023-05-14T15:22:20.701Z,101422.09
2023-05-14T15:24:55.341Z,101419.48
2023-05-14T15:27:23.494Z,101415.00
2023-05-14T15:29:51.220Z,101416.81
2023-05-14T15:32:19.013Z,101412.90
2023-05-14T15:34:46.742Z,101410.91
2023-05-14T15:37:27.149Z,101409.77
2023-05-14T15:39:55.882Z,101408.91
2023-05-14T15:42:26.456Z,101406.94
2023-05-14T15:44:55.574Z,101405.80
2023-05-14T15:47:23.466Z,101400.16
2023-05-14T15:49:51.600Z,101405.34
2023-05-14T15:52:19.444Z,101413.41
2023-05-14T15:54:50.319Z,101405.90
2023-05-14T15:57:20.013Z,101407.90
2023-05-14T15:59:48.529Z,101405.84
2023-05-14T16:02:16.804Z,101403.82
2023-05-14T16:04:53.372Z,101401.27
2023-05-14T16:07:40.394Z,101392.68
2023-05-14T16:10:11.630Z,101390.86
2023-05-14T16:13:01.352Z,101389.22
2023-05-14T16:15:45.910Z,101388.09
2023-05-14T16:18:24.524Z,101391.03
2023-05-14T16:25:07.402Z,101384.67
2023-05-14T16:27:40.900Z,101381.54
2023-05-14T16:30:12.638Z,101380.17
2023-05-14T16:32:49.055Z,101383.13
2023-05-14T16:35:26.390Z,101376.52
2023-05-14T16:38:26.911Z,101376.09
2023-05-14T16:41:07.042Z,101369.29
2023-05-14T16:43:43.631Z,101368.97
2023-05-14T16:46:15.650Z,101365.77
2023-05-14T17:32:49.055Z,101354.45
2023-05-14T17:36:02.175Z,101352.79
2023-05-14T17:43:25.668Z,101347.63
2023-05-14T18:44:27.461Z,101340.91
2023-05-14T18:51:34.329Z,101336.23
2023-05-14T18:55:01.114Z,101334.64
2023-05-14T19:06:06.813Z,101336.35
2023-05-14T19:47:30.792Z,101343.54
2023-05-14T19:54:16.418Z,101344.85
2023-05-14T22:54:47.113Z,101396.13
2023-05-14T22:57:32.319Z,101396.60
